Flight Track Log - Related Links

Times and Time Zones

All times are in EDT time to prevent confusion due to time zone crossing. See the SWA127 flight status page for this flight to view local times or setup timezone preferences in your user account.

Time Position Orientation Groundspeed Altitude Reporting Facility
EDT Latitude Longitude Course Direction KTS MPH feet Rate Location/Type
Sun 11:35:06 AM 29.6289 -95.2633 155° Southeast 150 173 900  Level Houston Center
Sun 11:35:49 AM 29.5958 -95.2458 155° Southeast 214 246 1,800 2,229 Climbing Houston Center
Sun 11:36:51 AM 29.5311 -95.2297 168° South 251 289 4,800 2,860 Climbing Houston Center
Sun 11:37:15 AM 29.5067 -95.2356 192° South 247 284 5,900 2,818 Climbing Houston Center
Sun 11:37:57 AM 29.4522 -95.2392 183° South 261 300 7,900 2,557 Climbing Houston Center
Sun 11:38:16 AM 29.4358 -95.2406 184° South 255 293 8,500 3,097 Climbing Houston Center
Sun 11:38:59 AM 29.3711 -95.2467 185° South 303 349 11,100 2,710 Climbing Houston Center
Sun 11:39:18 AM 29.3514 -95.2472 181° South 297 342 11,300 2,741 Climbing Houston Center
Sun 11:40:20 AM 29.2642 -95.2928 204° Southwest 338 389 14,800 2,806 Climbing Houston Center
Sun 11:41:22 AM 29.1750 -95.3478 208° Southwest 360 414 17,100 2,683 Climbing Houston Center
Sun 11:42:23 AM 29.0681 -95.4222 211° Southwest 374 430 20,300 3,122 Climbing Houston Center
Sun 11:43:25 AM 28.9842 -95.4922 216° Southwest 373 429 23,500 2,565 Climbing Houston Center
Sun 11:44:27 AM 28.9006 -95.5594 215° Southwest 369 425 25,600 1,984 Climbing Houston Center
Sun 11:45:29 AM 28.8158 -95.6286 216° Southwest 373 429 27,600 1,790 Climbing Houston Center
Sun 11:46:31 AM 28.7278 -95.6969 214° Southwest 381 438 29,300 1,902 Climbing Houston Center
Sun 11:47:32 AM 28.6442 -95.7675 217° Southwest 375 432 31,500 2,032 Climbing Houston Center
Sun 11:48:35 AM 28.5586 -95.8339 214° Southwest 373 429 33,500 2,032 Climbing Houston Center
Sun 11:49:36 AM 28.4608 -95.9131 215° Southwest 359 413 35,700 1,220 Climbing Houston Center
Sun 11:50:38 AM 28.3922 -95.9678 215° Southwest 353 406 36,000 145 Climbing Houston Center
Sun 11:51:40 AM 28.2956 -96.0456 215° Southwest 353 406 36,000  Level Houston Center
Sun 11:52:42 AM 28.2172 -96.1089 215° Southwest 348 400 36,000  Level Houston Center
Sun 11:53:43 AM 28.1375 -96.1728 215° Southwest 349 402 36,000  Level Houston Center
Sun 11:54:45 AM 28.0575 -96.2358 215° Southwest 350 403 36,000  Level Houston Center
Sun 11:55:47 AM 27.9756 -96.2989 214° Southwest 355 409 36,000  Level Houston Center
Sun 11:56:49 AM 27.8944 -96.3636 215° Southwest 357 411 36,000  Level Houston Center
Sun 11:57:51 AM 27.8117 -96.4289 215° Southwest 359 413 36,000  Level Houston Center
Sun 11:58:53 AM 27.7122 -96.5078 215° Southwest 363 418 36,000  Level Houston Center
Sun 11:59:55 AM 27.6278 -96.5719 214° Southwest 364 419 36,000 -341 Level Houston Center
Sun 12:00:56 PM 27.5431 -96.6386 215° Southwest 367 422 35,300 -829 Descending Houston Center
Sun 12:01:58 PM 27.4475 -96.6811 202° Southwest 370 426 34,300 -968 Descending Houston Center
Sun 12:03:00 PM 27.3533 -96.7242 202° Southwest 367 422 33,300 -968 Descending Houston Center
Sun 12:04:02 PM 27.2689 -96.7833 212° Southwest 361 415 32,300 -1,016 Descending Houston Center
Sun 12:05:04 PM 27.1839 -96.8564 217° Southwest 354 407 31,200 -1,597 Descending Houston Center
Sun 12:06:06 PM 27.1061 -96.9214 217° Southwest 350 403 29,000 -2,439 Descending Houston Center
Sun 12:07:07 PM 27.0244 -96.9911 217° Southwest 359 413 26,200 -2,634 Descending Houston Center
Sun 12:08:09 PM 26.9431 -97.0586 216° Southwest 364 419 23,600 -2,681 Descending Houston Center
Sun 12:08:41 PM 26.8897 -97.1039 217° Southwest 351 404 22,000 -2,903 Descending Houston Center
Sun 12:09:11 PM 26.8481 -97.1372 216° Southwest 346 398 20,600 -2,557 Descending Houston Center
Sun 12:09:42 PM 26.8111 -97.1711 219° Southwest 339 390 19,400 -2,419 Descending Houston Center
Sun 12:10:13 PM 26.7711 -97.1972 210° Southwest 338 389 18,100 -2,700 Descending Houston Center
Sun 12:10:42 PM 26.7158 -97.2056 188° South 351 404 16,700 -2,613 Descending Houston Center
Sun 12:11:15 PM 26.6681 -97.2178 193° South 350 403 15,400 -2,557 Descending Houston Center
Sun 12:11:43 PM 26.6236 -97.2275 191° South 345 397 14,100 -2,323 Descending Houston Center
Sun 12:12:17 PM 26.5756 -97.2381 191° South 339 390 13,000 -2,164 Descending Houston Center
Sun 12:12:44 PM 26.5331 -97.2472 191° South 334 384 11,900 -2,032 Descending Houston Center
Sun 12:13:19 PM 26.4869 -97.2589 193° South 327 376 10,900 -1,800 Descending Houston Center
Sun 12:13:44 PM 26.4475 -97.2706 195° South 313 360 10,100 -1,475 Descending Houston Center
Sun 12:14:20 PM 26.4008 -97.2833 194° South 300 345 9,400 -1,377 Descending Houston Center
Sun 12:14:45 PM 26.3775 -97.3058 221° Southwest 278 320 8,700 -1,742 Descending Houston Center
Sun 12:15:22 PM 26.3428 -97.3389 220° Southwest 276 318 7,600 -1,900 Descending Houston Center
Sun 12:15:45 PM 26.3183 -97.3608 219° Southwest 276 318 6,800 -1,839 Descending Houston Center
Sun 12:16:24 PM 26.2831 -97.3967 222° Southwest 282 325 5,700 -1,869 Descending Houston Center
Sun 12:16:46 PM 26.2597 -97.4200 222° Southwest 285 328 4,900 -1,742 Descending Houston Center
Sun 12:17:26 PM 26.2164 -97.4597 219° Southwest 289 333 3,900 -1,475 Descending Houston Center
Sun 12:17:47 PM 26.1967 -97.4778 219° Southwest 290 334 3,400 -1,258 Descending Houston Center
Sun 12:18:28 PM 26.1586 -97.5147 221° Southwest 277 319 2,600 -1,200 Descending Houston Center
Sun 12:18:47 PM 26.1417 -97.5317 222° Southwest 257 296 2,200 -581 Descending Houston Center
Sun 12:19:30 PM 26.1067 -97.5592 215° Southwest 241 277 2,000 -295 Descending Houston Center
Sun 12:19:48 PM 26.0861 -97.5625 188° South 221 254 1,900  Descending Houston Center
Sun 12:20:32 PM 26.0372 -97.5650 183° South 236 272 2,000  Climbing Houston Center
Sun 12:20:48 PM 26.0289 -97.5794 237° Southwest 233 268 1,900  Descending Houston Center
Sun 12:21:34 PM 26.0283 -97.6286 269° West 212 244 2,000  Climbing Houston Center
Sun 12:21:49 PM 26.0336 -97.6419 294° West 193 222 1,900  Descending Houston Center
Sun 12:22:35 PM 26.0636 -97.6656 325° Northwest 181 208 2,000  Climbing Houston Center
Sun 12:22:50 PM 26.0764 -97.6664 357° North 157 181 1,900 -484 Descending Houston Center
Sun 12:23:37 PM 26.1050 -97.6600 11° North 142 163 1,500 -330 Descending Houston Center
Sun 12:24:39 PM 26.1364 -97.6569 North 120 138 1,300 -339 Descending Houston Center
Sun 12:25:41 PM 26.1700 -97.6597 356° North 115 132 800 -435 Descending Houston Center
Sun 12:26:43 PM 26.2003 -97.6597 360° North 118 136 400 -387 Descending Houston Center

Login

Don't have an account? Register now (free) for customized features, flight alerts, and more!